Time;durP1;ratioP1;P1;durP2;ratioP2;P2;SDS_P1;SDS_P2;PMS_P1;PMS_P2;Temp;Humidity;BMP_temperature;BMP_pressure;BME280_temperature;BME280_humidity;BME280_pressure;Samples;Min_cycle;Max_cycle;Signal;HPM_P1;HPM_P2
2023/08/10 00:00:16;;;;;;;8.73;3.30;;;14.40;99.90;;;;;;4996287;28;20181;-79
2023/08/10 00:02:45;;;;;;;7.70;3.42;;;14.40;99.90;;;;;;4996363;28;20211;-79
2023/08/10 00:05:12;;;;;;;5.82;3.50;;;14.40;99.90;;;;;;4996654;28;20176;-80
2023/08/10 00:07:38;;;;;;;6.28;3.38;;;14.50;99.90;;;;;;5013087;28;20651;-79
2023/08/10 00:10:08;;;;;;;8.88;3.60;;;14.40;99.90;;;;;;4996055;28;20299;-79
2023/08/10 00:12:35;;;;;;;4.88;3.25;;;14.40;99.90;;;;;;4996235;28;20173;-79
2023/08/10 00:15:02;;;;;;;5.85;3.83;;;14.40;99.90;;;;;;4996361;28;20227;-79
2023/08/10 00:17:30;;;;;;;7.25;3.70;;;14.40;99.90;;;;;;4998927;28;20200;-80
2023/08/10 00:19:55;;;;;;;6.97;3.80;;;14.40;99.90;;;;;;4999806;28;20212;-81
2023/08/10 00:22:22;;;;;;;7.95;3.80;;;14.30;99.90;;;;;;4999627;28;20240;-80
2023/08/10 00:24:48;;;;;;;7.88;3.63;;;14.40;99.90;;;;;;4999008;28;20234;-80
2023/08/10 00:27:15;;;;;;;5.93;4.38;;;14.40;99.90;;;;;;4999688;28;20708;-79
2023/08/10 00:29:40;;;;;;;12.25;4.43;;;14.40;99.90;;;;;;4999928;28;20686;-81
2023/08/10 00:32:06;;;;;;;9.55;4.40;;;14.40;99.90;;;;;;4999079;28;20207;-80
2023/08/10 00:34:32;;;;;;;7.05;3.83;;;14.30;99.90;;;;;;5000816;28;20175;-82
2023/08/10 00:36:58;;;;;;;10.73;4.45;;;14.20;99.90;;;;;;4998901;28;20223;-80
2023/08/10 00:39:24;;;;;;;8.73;4.30;;;14.20;99.90;;;;;;4999812;28;20180;-81
2023/08/10 00:41:50;;;;;;;6.95;3.83;;;14.20;99.90;;;;;;4999335;28;20177;-82
2023/08/10 00:44:16;;;;;;;9.02;4.20;;;14.20;99.90;;;;;;4999117;28;20637;-81
2023/08/10 00:46:43;;;;;;;7.35;4.38;;;14.20;99.90;;;;;;5015330;28;20223;-80
2023/08/10 00:49:10;;;;;;;6.63;4.18;;;14.20;99.90;;;;;;4999188;28;20204;-80
2023/08/10 00:51:36;;;;;;;7.28;4.50;;;14.30;99.90;;;;;;4998153;28;20576;-80
2023/08/10 00:54:02;;;;;;;10.80;4.50;;;14.30;99.90;;;;;;5000181;28;20176;-81
2023/08/10 00:56:29;;;;;;;9.73;4.45;;;14.20;99.90;;;;;;4998829;28;20274;-81
2023/08/10 00:58:55;;;;;;;12.38;4.50;;;14.20;99.90;;;;;;5000376;28;20271;-80
2023/08/10 01:01:21;;;;;;;7.20;4.10;;;14.30;99.90;;;;;;4998445;28;20219;-80
2023/08/10 01:03:46;;;;;;;6.60;4.40;;;14.30;99.90;;;;;;4980357;28;20244;-80
2023/08/10 01:06:39;;;;;;;6.00;4.05;;;14.30;99.90;;;;;;4995460;28;20181;-81
2023/08/10 01:09:39;;;;;;;8.32;4.15;;;14.40;99.90;;;;;;4959449;28;20205;-80
2023/08/10 01:12:25;;;;;;;13.57;4.38;;;14.50;99.90;;;;;;4978556;28;20279;-80
2023/08/10 01:15:30;;;;;;;12.00;4.03;;;14.40;99.90;;;;;;4980933;28;20161;-81
2023/08/10 01:17:58;;;;;;;11.48;4.18;;;14.40;99.90;;;;;;4973029;28;20259;-81
2023/08/10 01:20:25;;;;;;;9.40;4.65;;;14.40;99.90;;;;;;4980470;28;20193;-80
2023/08/10 01:23:01;;;;;;;7.05;4.57;;;14.30;99.90;;;;;;4994990;28;20236;-81
2023/08/10 01:25:28;;;;;;;9.75;4.35;;;14.20;99.90;;;;;;4994994;28;20676;-81
2023/08/10 01:27:55;;;;;;;11.27;4.55;;;14.20;99.90;;;;;;4994307;28;20263;-80
2023/08/10 01:30:21;;;;;;;7.13;4.30;;;14.20;99.90;;;;;;4995006;28;20209;-81
2023/08/10 01:32:50;;;;;;;7.50;4.05;;;14.20;99.90;;;;;;4991139;28;20184;-81
2023/08/10 01:35:16;;;;;;;8.68;4.50;;;14.20;99.90;;;;;;4998612;28;20202;-81
2023/08/10 01:37:44;;;;;;;13.18;5.07;;;14.10;99.90;;;;;;4999558;28;20600;-80
2023/08/10 01:40:13;;;;;;;6.25;4.10;;;14.00;99.90;;;;;;4999522;28;20176;-81
2023/08/10 01:42:41;;;;;;;10.40;5.22;;;14.00;99.90;;;;;;4999388;28;20220;-80
2023/08/10 01:45:08;;;;;;;7.38;4.57;;;13.90;99.90;;;;;;4998069;28;20181;-81
2023/08/10 01:47:44;;;;;;;7.30;4.72;;;14.00;99.90;;;;;;4997697;28;20616;-80
2023/08/10 01:50:10;;;;;;;9.05;4.50;;;14.00;99.90;;;;;;4997880;28;20579;-81
2023/08/10 01:52:52;;;;;;;9.00;5.25;;;14.00;99.90;;;;;;4997583;28;20612;-81
2023/08/10 01:55:19;;;;;;;8.10;4.40;;;14.00;99.90;;;;;;4998203;28;20172;-81
2023/08/10 01:57:46;;;;;;;8.15;5.07;;;14.00;99.90;;;;;;4997781;28;20223;-81
2023/08/10 02:00:13;;;;;;;11.35;4.80;;;14.00;99.90;;;;;;4998467;28;20268;-81
2023/08/10 02:02:39;;;;;;;6.68;4.63;;;14.00;99.90;;;;;;4998050;28;20675;-81
2023/08/10 02:05:06;;;;;;;7.10;4.85;;;14.00;99.90;;;;;;4999259;28;20181;-80
2023/08/10 02:07:32;;;;;;;7.97;5.25;;;14.00;99.90;;;;;;4997752;28;20204;-81
2023/08/10 02:09:59;;;;;;;9.02;4.80;;;14.00;99.90;;;;;;4997648;28;20284;-81
2023/08/10 02:12:25;;;;;;;9.98;5.40;;;13.90;99.90;;;;;;4998112;28;20567;-80
2023/08/10 02:14:51;;;;;;;9.32;4.90;;;13.90;99.90;;;;;;4997705;28;20181;-80
2023/08/10 02:17:17;;;;;;;9.45;4.50;;;14.00;99.90;;;;;;4998824;28;20192;-80
2023/08/10 02:19:43;;;;;;;9.23;4.63;;;14.00;99.90;;;;;;4997727;28;20661;-81
2023/08/10 02:22:09;;;;;;;11.85;5.40;;;14.00;99.90;;;;;;4998718;28;20181;-80
2023/08/10 02:24:35;;;;;;;10.32;5.20;;;13.90;99.90;;;;;;4997410;28;20657;-81
2023/08/10 02:27:01;;;;;;;9.93;4.90;;;13.80;99.90;;;;;;4997437;28;20181;-81
2023/08/10 02:29:28;;;;;;;7.20;4.43;;;13.80;99.90;;;;;;4999243;28;20272;-81
2023/08/10 02:31:54;;;;;;;8.68;4.72;;;13.90;99.90;;;;;;4998008;28;20185;-82
2023/08/10 02:34:19;;;;;;;7.40;4.90;;;13.80;99.90;;;;;;4997897;28;20265;-81
2023/08/10 02:36:45;;;;;;;9.27;4.90;;;13.80;99.90;;;;;;4997899;28;20181;-81
2023/08/10 02:39:11;;;;;;;6.93;5.03;;;13.80;99.90;;;;;;4998177;28;20192;-81
2023/08/10 02:41:38;;;;;;;11.02;4.43;;;13.70;99.90;;;;;;4999773;28;20189;-81
2023/08/10 02:44:04;;;;;;;7.60;4.88;;;13.70;99.90;;;;;;4998039;28;20180;-81
2023/08/10 02:46:30;;;;;;;9.63;5.05;;;13.70;99.90;;;;;;4997914;28;20180;-82
2023/08/10 02:48:56;;;;;;;6.30;4.75;;;13.60;99.90;;;;;;4998006;28;20254;-81
2023/08/10 02:51:22;;;;;;;10.05;5.35;;;13.60;99.90;;;;;;4998730;28;20204;-81
2023/08/10 02:53:48;;;;;;;11.95;5.40;;;13.60;99.90;;;;;;4997983;28;20180;-80
2023/08/10 02:56:13;;;;;;;10.40;5.32;;;13.60;99.90;;;;;;4998274;28;20661;-81
2023/08/10 02:58:39;;;;;;;10.52;4.88;;;13.50;99.90;;;;;;4998377;28;20201;-81
2023/08/10 03:01:07;;;;;;;9.32;4.90;;;13.60;99.90;;;;;;4998300;28;20351;-82
2023/08/10 03:03:33;;;;;;;9.32;5.03;;;13.60;99.90;;;;;;4997279;28;20216;-81
2023/08/10 03:05:59;;;;;;;13.38;5.03;;;13.50;99.90;;;;;;4997818;28;20181;-80
2023/08/10 03:08:25;;;;;;;7.32;4.57;;;13.50;99.90;;;;;;5014775;28;20204;-80
2023/08/10 03:10:51;;;;;;;6.97;4.60;;;13.50;99.90;;;;;;4998073;28;20211;-80
2023/08/10 03:13:17;;;;;;;7.63;5.03;;;13.50;99.90;;;;;;4999884;28;20636;-81
2023/08/10 03:15:43;;;;;;;10.77;4.80;;;13.60;99.90;;;;;;5001886;28;20180;-81
2023/08/10 03:18:09;;;;;;;6.75;4.63;;;13.60;99.90;;;;;;5001483;28;20759;-80
2023/08/10 03:20:35;;;;;;;11.45;4.57;;;13.60;99.90;;;;;;5001284;28;20192;-80
2023/08/10 03:23:01;;;;;;;7.15;4.55;;;13.70;99.90;;;;;;5000821;28;20191;-81
2023/08/10 03:25:27;;;;;;;11.20;5.20;;;13.70;99.90;;;;;;5017254;28;20180;-81
2023/08/10 03:27:53;;;;;;;8.90;4.65;;;13.70;99.90;;;;;;5000124;28;20200;-80
2023/08/10 03:30:19;;;;;;;7.28;4.43;;;13.70;99.90;;;;;;5001967;28;20227;-81
2023/08/10 03:32:45;;;;;;;10.95;5.13;;;13.70;99.90;;;;;;5002366;28;20180;-80
2023/08/10 03:35:11;;;;;;;7.93;4.50;;;13.70;99.90;;;;;;5002107;28;20171;-81
2023/08/10 03:37:37;;;;;;;8.55;4.75;;;13.80;99.90;;;;;;5001157;28;20282;-81
2023/08/10 03:40:04;;;;;;;9.48;4.50;;;13.80;99.90;;;;;;5001056;28;20181;-81
2023/08/10 03:42:30;;;;;;;7.32;4.53;;;13.80;99.90;;;;;;5001656;28;20203;-80
2023/08/10 03:44:56;;;;;;;10.93;4.80;;;13.80;99.90;;;;;;5001045;28;20652;-82
2023/08/10 03:47:22;;;;;;;7.10;5.30;;;13.70;99.90;;;;;;5002682;28;20196;-81
2023/08/10 03:49:49;;;;;;;9.57;4.72;;;13.60;99.90;;;;;;5001892;28;20211;-81
2023/08/10 03:52:15;;;;;;;7.30;5.22;;;13.50;99.90;;;;;;5001153;28;20247;-81
2023/08/10 03:54:41;;;;;;;7.43;5.07;;;13.50;99.90;;;;;;5001567;28;20641;-82
2023/08/10 03:57:06;;;;;;;9.32;4.70;;;13.50;99.90;;;;;;5000877;28;20195;-81
2023/08/10 03:59:32;;;;;;;6.90;4.45;;;13.60;99.90;;;;;;5001231;28;20227;-81
2023/08/10 04:01:58;;;;;;;10.20;5.03;;;13.50;99.90;;;;;;5000634;28;20212;-80
2023/08/10 04:04:24;;;;;;;7.00;4.70;;;13.60;99.90;;;;;;5002549;28;20173;-81
2023/08/10 04:06:50;;;;;;;9.60;5.43;;;13.60;99.90;;;;;;5000856;28;20176;-81
2023/08/10 04:09:16;;;;;;;10.88;4.78;;;13.60;99.90;;;;;;5001998;28;20203;-81
2023/08/10 04:11:42;;;;;;;7.43;4.47;;;13.60;99.90;;;;;;5001816;28;20558;-81
2023/08/10 04:14:07;;;;;;;8.32;4.70;;;13.60;99.90;;;;;;5002096;28;20169;-81
2023/08/10 04:16:33;;;;;;;9.70;4.57;;;13.70;99.90;;;;;;5001149;28;20245;-81
2023/08/10 04:18:59;;;;;;;9.20;4.20;;;13.70;99.90;;;;;;5009925;28;20216;-81
2023/08/10 04:21:24;;;;;;;10.05;4.65;;;13.80;99.90;;;;;;5000870;28;20177;-81
2023/08/10 04:23:50;;;;;;;9.75;4.90;;;13.80;99.90;;;;;;4998831;28;20672;-81
2023/08/10 04:26:16;;;;;;;8.93;4.25;;;13.70;99.90;;;;;;4998538;28;20188;-82
2023/08/10 04:28:42;;;;;;;8.07;4.55;;;13.70;99.90;;;;;;5001221;28;20554;-81
2023/08/10 04:31:08;;;;;;;10.25;4.55;;;13.60;99.90;;;;;;5000250;28;20204;-82
2023/08/10 04:33:34;;;;;;;6.07;4.40;;;13.70;99.90;;;;;;5000542;28;20180;-80
2023/08/10 04:36:00;;;;;;;10.95;4.88;;;13.70;99.90;;;;;;4999919;28;20187;-82
2023/08/10 04:38:26;;;;;;;7.50;4.32;;;13.60;99.90;;;;;;5000334;28;20204;-81
2023/08/10 04:40:53;;;;;;;8.93;4.60;;;13.60;99.90;;;;;;5000255;28;20187;-81
2023/08/10 04:43:18;;;;;;;9.77;4.88;;;13.60;99.90;;;;;;5002053;28;20176;-80
2023/08/10 04:45:44;;;;;;;9.23;5.00;;;13.60;99.90;;;;;;5002309;28;20191;-79
2023/08/10 04:48:11;;;;;;;8.73;4.97;;;13.60;99.90;;;;;;4999078;28;20672;-79
2023/08/10 04:50:37;;;;;;;7.57;4.88;;;13.50;99.90;;;;;;4997656;28;20246;-79
2023/08/10 04:53:03;;;;;;;10.43;4.88;;;13.50;99.90;;;;;;4997831;28;20651;-79
2023/08/10 04:55:28;;;;;;;7.03;4.40;;;13.40;99.90;;;;;;4998422;28;20204;-79
2023/08/10 04:57:54;;;;;;;12.45;5.07;;;13.40;99.90;;;;;;4997095;28;20675;-78
2023/08/10 05:00:20;;;;;;;9.02;5.40;;;13.40;99.90;;;;;;5014036;28;20275;-79
2023/08/10 05:02:46;;;;;;;8.60;5.07;;;13.50;99.90;;;;;;4999814;28;20196;-78
2023/08/10 05:05:13;;;;;;;11.98;4.93;;;13.50;99.90;;;;;;4997770;28;20653;-82
2023/08/10 05:07:38;;;;;;;6.55;4.70;;;13.50;99.90;;;;;;4999994;28;20199;-81
2023/08/10 05:10:06;;;;;;;8.85;4.57;;;13.50;99.90;;;;;;5000522;28;20208;-83
2023/08/10 05:12:34;;;;;;;12.13;5.25;;;13.60;99.90;;;;;;4999155;28;20784;-83
2023/08/10 05:15:00;;;;;;;11.10;4.80;;;13.60;99.90;;;;;;5000244;28;20188;-82
2023/08/10 05:17:26;;;;;;;11.15;5.30;;;13.50;99.90;;;;;;5001249;28;20193;-82
2023/08/10 05:19:52;;;;;;;12.02;5.53;;;13.50;99.90;;;;;;5001425;28;20192;-82
2023/08/10 05:22:18;;;;;;;8.43;4.93;;;13.50;99.90;;;;;;5001678;28;20652;-82
2023/08/10 05:24:44;;;;;;;7.03;5.13;;;13.50;99.90;;;;;;4998194;28;20176;-82
2023/08/10 05:27:10;;;;;;;9.68;5.68;;;13.60;99.90;;;;;;4995660;28;20297;-79
2023/08/10 05:29:35;;;;;;;7.15;5.32;;;13.50;99.90;;;;;;4995777;28;20263;-79
2023/08/10 05:32:01;;;;;;;8.75;5.40;;;13.50;99.90;;;;;;4996131;28;20696;-79
2023/08/10 05:34:27;;;;;;;11.93;5.60;;;13.60;99.90;;;;;;4997141;28;20180;-80
2023/08/10 05:36:53;;;;;;;10.85;5.70;;;13.60;99.90;;;;;;4995681;28;20267;-80
2023/08/10 05:39:19;;;;;;;13.27;6.22;;;13.60;99.90;;;;;;4995281;28;20231;-80
2023/08/10 05:41:45;;;;;;;11.50;5.80;;;13.70;99.90;;;;;;4994046;28;20190;-80
2023/08/10 05:44:12;;;;;;;14.38;6.25;;;13.80;99.90;;;;;;4993488;28;20184;-78
2023/08/10 05:46:38;;;;;;;12.45;7.00;;;13.80;99.90;;;;;;4995621;28;20176;-79
2023/08/10 05:49:04;;;;;;;11.65;6.43;;;13.90;99.90;;;;;;4995043;28;20283;-80
2023/08/10 05:51:30;;;;;;;11.65;6.40;;;13.80;99.90;;;;;;4993488;28;20294;-80
2023/08/10 05:53:55;;;;;;;16.90;7.18;;;13.80;99.90;;;;;;4994910;28;20179;-79
2023/08/10 05:56:21;;;;;;;14.00;6.93;;;13.90;99.90;;;;;;4995453;28;20547;-78
2023/08/10 05:58:47;;;;;;;13.63;6.32;;;13.90;99.90;;;;;;4994912;28;20192;-78
2023/08/10 06:01:13;;;;;;;12.95;6.03;;;13.90;99.90;;;;;;4995475;28;20177;-79
2023/08/10 06:03:39;;;;;;;13.50;5.93;;;14.00;99.90;;;;;;4995150;28;20192;-79
2023/08/10 06:06:06;;;;;;;11.85;6.40;;;14.10;99.90;;;;;;4995920;28;20172;-80
2023/08/10 06:08:33;;;;;;;11.82;6.43;;;14.20;99.90;;;;;;4994864;28;20208;-81
2023/08/10 06:11:00;;;;;;;12.73;6.28;;;14.20;99.90;;;;;;4997900;28;20204;-79
2023/08/10 06:13:26;;;;;;;14.95;6.53;;;14.20;99.90;;;;;;4996919;28;20199;-79
2023/08/10 06:15:52;;;;;;;10.65;6.70;;;14.30;99.90;;;;;;4995263;28;20153;-78
2023/08/10 06:18:17;;;;;;;16.83;7.90;;;14.30;99.90;;;;;;4994824;28;20573;-78
2023/08/10 06:20:44;;;;;;;16.83;7.75;;;14.30;99.90;;;;;;4994572;28;20207;-78
2023/08/10 06:23:12;;;;;;;11.20;6.50;;;14.30;99.90;;;;;;4995879;28;20172;-78
2023/08/10 06:25:38;;;;;;;14.32;7.22;;;14.50;99.90;;;;;;4994494;28;20566;-78
2023/08/10 06:28:04;;;;;;;12.30;7.53;;;14.50;99.90;;;;;;4995462;28;20226;-79
2023/08/10 06:30:31;;;;;;;13.85;7.72;;;14.60;99.90;;;;;;4995967;28;20295;-79
2023/08/10 06:32:56;;;;;;;13.77;7.85;;;14.60;99.90;;;;;;4997003;28;20196;-79
2023/08/10 06:35:22;;;;;;;12.48;8.00;;;14.60;99.90;;;;;;4994872;28;20187;-78
2023/08/10 06:37:50;;;;;;;13.07;7.50;;;14.60;99.90;;;;;;4993898;28;20725;-79
2023/08/10 06:40:16;;;;;;;18.50;7.65;;;14.60;99.90;;;;;;4994215;28;20192;-79
2023/08/10 06:42:42;;;;;;;10.77;7.07;;;14.70;99.90;;;;;;4994665;28;20204;-79
2023/08/10 06:45:08;;;;;;;11.77;6.63;;;14.80;99.90;;;;;;4994317;28;20191;-80
2023/08/10 06:47:34;;;;;;;11.43;7.57;;;14.90;99.90;;;;;;4995673;28;20193;-79
2023/08/10 06:50:01;;;;;;;12.48;7.30;;;15.00;99.90;;;;;;4996973;28;20291;-79
2023/08/10 06:52:27;;;;;;;13.85;7.35;;;15.10;99.90;;;;;;4998531;28;20176;-77
2023/08/10 06:54:53;;;;;;;13.63;7.18;;;15.10;99.90;;;;;;4997634;28;20168;-77
2023/08/10 06:57:22;;;;;;;9.60;5.88;;;15.30;99.90;;;;;;4995960;28;20197;-77
2023/08/10 06:59:48;;;;;;;13.27;6.75;;;15.30;99.90;;;;;;4997146;28;20160;-77
2023/08/10 07:02:15;;;;;;;15.73;7.57;;;15.40;99.90;;;;;;5012612;28;20671;-77
2023/08/10 07:04:41;;;;;;;15.60;7.10;;;15.50;99.90;;;;;;4997372;28;20184;-77
2023/08/10 07:07:07;;;;;;;10.68;6.68;;;15.50;99.90;;;;;;4996197;28;20263;-78
2023/08/10 07:09:33;;;;;;;15.57;7.28;;;15.60;99.90;;;;;;4995924;28;20181;-77
2023/08/10 07:11:59;;;;;;;16.80;6.50;;;15.80;99.90;;;;;;4995990;28;20177;-78
2023/08/10 07:14:25;;;;;;;13.32;6.65;;;15.90;99.90;;;;;;4995712;28;20173;-77
2023/08/10 07:16:50;;;;;;;10.13;6.40;;;16.00;99.90;;;;;;4995777;28;20176;-77
2023/08/10 07:19:16;;;;;;;15.02;6.60;;;16.30;99.90;;;;;;4995675;28;20286;-78
2023/08/10 07:21:42;;;;;;;14.40;6.55;;;16.30;99.90;;;;;;4997197;28;20177;-77
2023/08/10 07:24:07;;;;;;;16.40;6.78;;;16.40;99.90;;;;;;4995830;28;20188;-77
2023/08/10 07:26:33;;;;;;;10.88;6.13;;;16.50;99.90;;;;;;4996092;28;20688;-78
2023/08/10 07:28:59;;;;;;;10.02;6.57;;;16.50;99.90;;;;;;4995471;28;20204;-77
2023/08/10 07:31:31;;;;;;;9.65;5.60;;;16.50;99.90;;;;;;4995487;28;20208;-77
2023/08/10 07:34:00;;;;;;;9.43;6.00;;;16.50;99.90;;;;;;4976200;28;20259;-77
2023/08/10 07:36:26;;;;;;;10.50;5.75;;;16.50;99.90;;;;;;4976038;28;20177;-76
2023/08/10 07:38:55;;;;;;;10.43;5.65;;;16.60;99.90;;;;;;4975765;28;20205;-77
2023/08/10 07:41:21;;;;;;;11.52;5.03;;;16.80;99.90;;;;;;4975940;28;20185;-77
2023/08/10 07:43:47;;;;;;;9.68;4.95;;;16.90;99.90;;;;;;4991986;28;20189;-78
2023/08/10 07:46:13;;;;;;;10.38;4.78;;;17.00;99.90;;;;;;4992141;28;20185;-78
2023/08/10 07:48:39;;;;;;;12.43;5.15;;;17.20;99.90;;;;;;4975904;28;20212;-78
2023/08/10 07:51:06;;;;;;;7.40;4.57;;;17.20;99.90;;;;;;4977006;28;20205;-78
2023/08/10 07:53:33;;;;;;;8.95;4.43;;;17.20;99.90;;;;;;4975898;28;20189;-78
2023/08/10 07:55:59;;;;;;;11.60;4.85;;;17.40;99.90;;;;;;4977133;28;20169;-78
2023/08/10 07:58:25;;;;;;;16.23;5.53;;;17.70;99.90;;;;;;4976433;28;20626;-78
2023/08/10 08:00:51;;;;;;;11.38;4.78;;;17.80;99.90;;;;;;4975193;28;20578;-77
2023/08/10 08:03:17;;;;;;;9.32;4.22;;;17.90;99.90;;;;;;5006678;28;20226;-77
2023/08/10 08:05:43;;;;;;;8.13;4.07;;;17.60;99.90;;;;;;4995074;28;20618;-78
2023/08/10 08:08:09;;;;;;;13.52;4.75;;;17.60;99.90;;;;;;4994812;28;20200;-77
2023/08/10 08:10:36;;;;;;;10.65;3.97;;;17.70;99.90;;;;;;4996043;28;20570;-78
2023/08/10 08:13:03;;;;;;;9.23;4.90;;;17.80;99.90;;;;;;4994805;28;20545;-77
2023/08/10 08:15:29;;;;;;;12.05;4.30;;;17.90;99.90;;;;;;4994352;28;20204;-78
2023/08/10 08:18:34;;;;;;;10.38;3.50;;;17.70;99.90;;;;;;4995840;28;20188;-78
2023/08/10 08:21:00;;;;;;;4.50;2.78;;;17.70;18.30;;;;;;5010669;28;20191;-77
2023/08/10 08:23:26;;;;;;;5.93;2.80;;;17.70;1.00;;;;;;4994575;28;20180;-78
2023/08/10 08:25:51;;;;;;;5.05;2.83;;;17.70;1.00;;;;;;4994402;28;20190;-78
2023/08/10 08:28:17;;;;;;;6.47;3.85;;;18.00;99.90;;;;;;4995679;28;20196;-78
2023/08/10 08:30:43;;;;;;;8.85;3.78;;;18.20;99.90;;;;;;4995572;28;20215;-78
2023/08/10 08:33:09;;;;;;;8.88;2.97;;;18.50;16.30;;;;;;4995466;28;20180;-78
2023/08/10 08:35:35;;;;;;;5.97;3.10;;;19.00;1.00;;;;;;4994201;28;20211;-78
2023/08/10 08:38:01;;;;;;;9.55;4.00;;;19.30;1.00;;;;;;4994245;28;20228;-77
2023/08/10 08:40:27;;;;;;;7.15;3.20;;;19.80;1.00;;;;;;4994418;28;20192;-77
2023/08/10 08:42:53;;;;;;;9.95;3.53;;;20.20;1.00;;;;;;4994269;28;20215;-78
2023/08/10 08:45:19;;;;;;;6.10;2.88;;;20.40;1.00;;;;;;4993807;28;20272;-78
2023/08/10 08:47:46;;;;;;;6.35;3.00;;;20.70;1.00;;;;;;5010570;28;20295;-78
2023/08/10 08:50:14;;;;;;;7.03;3.30;;;20.90;99.90;;;;;;4994108;28;20211;-78
2023/08/10 08:52:42;;;;;;;9.93;3.00;;;20.90;1.00;;;;;;4995614;28;20173;-77
2023/08/10 08:55:11;;;;;;;8.48;3.20;;;21.10;1.00;;;;;;4994221;28;20185;-78
2023/08/10 08:57:37;;;;;;;8.45;3.55;;;21.20;99.90;;;;;;4995013;28;20196;-77
2023/08/10 09:00:04;;;;;;;5.95;3.08;;;21.30;99.90;;;;;;4994829;28;20165;-77
2023/08/10 09:02:30;;;;;;;5.47;3.08;;;21.50;99.90;;;;;;4994951;28;20188;-77
2023/08/10 09:04:59;;;;;;;12.80;3.15;;;21.60;1.00;;;;;;4995234;28;20180;-77
2023/08/10 09:07:29;;;;;;;7.35;3.08;;;21.60;1.00;;;;;;4993832;28;20694;-78
2023/08/10 09:09:56;;;;;;;6.00;2.75;;;21.80;99.90;;;;;;4994696;28;20638;-77
2023/08/10 09:12:32;;;;;;;6.28;2.75;;;22.00;99.90;;;;;;4994109;28;20157;-77
2023/08/10 09:15:04;;;;;;;6.40;2.60;;;22.10;78.50;;;;;;4996907;28;20549;-77
2023/08/10 09:17:30;;;;;;;5.25;2.60;;;22.20;99.90;;;;;;4999223;28;20529;-78
2023/08/10 09:19:56;;;;;;;6.63;2.88;;;22.10;99.90;;;;;;4996884;28;20224;-78
2023/08/10 09:22:38;;;;;;;5.45;2.30;;;21.90;1.00;;;;;;4994150;28;20211;-80
2023/08/10 09:25:05;;;;;;;7.85;2.47;;;21.90;99.90;;;;;;4994925;28;20203;-80
2023/08/10 09:27:31;;;;;;;4.88;2.40;;;21.80;1.00;;;;;;4996595;28;20200;-78
2023/08/10 09:30:03;;;;;;;5.90;2.10;;;22.00;99.90;;;;;;4996264;28;20231;-78
2023/08/10 09:32:29;;;;;;;5.32;2.10;;;22.10;1.00;;;;;;4993732;28;20194;-79
2023/08/10 09:34:55;;;;;;;5.97;2.40;;;21.80;1.00;;;;;;4995487;28;20176;-79
2023/08/10 09:37:23;;;;;;;4.20;2.00;;;21.60;99.90;;;;;;4994311;28;20695;-80
2023/08/10 09:40:05;;;;;;;7.35;2.33;;;21.50;1.00;;;;;;4996889;28;20177;-79
2023/08/10 09:42:31;;;;;;;4.55;2.00;;;21.40;1.00;;;;;;4994527;28;20645;-78
2023/08/10 09:44:59;;;;;;;5.03;2.00;;;21.40;1.00;;;;;;4993972;28;20188;-78
2023/08/10 09:47:25;;;;;;;3.67;1.90;;;21.40;1.00;;;;;;4995529;28;20216;-79
2023/08/10 09:49:56;;;;;;;7.82;2.55;;;21.50;99.90;;;;;;4994131;28;20205;-79
2023/08/10 09:52:26;;;;;;;4.35;2.22;;;21.70;99.90;;;;;;4995905;28;20168;-78
2023/08/10 09:54:54;;;;;;;7.00;2.05;;;21.80;1.00;;;;;;4997068;28;20164;-80
2023/08/10 09:57:21;;;;;;;4.30;2.20;;;21.70;99.90;;;;;;4998650;28;20673;-81
2023/08/10 09:59:47;;;;;;;3.25;1.90;;;21.80;99.90;;;;;;4998518;28;20219;-81
2023/08/10 10:02:14;;;;;;;4.32;2.13;;;21.80;1.00;;;;;;4999575;28;20191;-80
2023/08/10 10:04:42;;;;;;;6.13;2.10;;;22.00;1.00;;;;;;4993327;28;20542;-78
2023/08/10 10:07:09;;;;;;;5.57;2.13;;;22.10;99.90;;;;;;4994426;28;20203;-77
2023/08/10 10:09:39;;;;;;;4.28;2.10;;;22.00;1.00;;;;;;4994282;28;20164;-78
2023/08/10 10:12:09;;;;;;;3.58;1.95;;;22.10;99.90;;;;;;4993487;28;20188;-78
2023/08/10 10:14:45;;;;;;;4.28;2.03;;;22.10;1.00;;;;;;4993337;28;20187;-78
2023/08/10 10:17:13;;;;;;;6.13;2.40;;;22.10;1.00;;;;;;4994480;28;20168;-78
2023/08/10 10:19:40;;;;;;;3.05;2.20;;;22.10;1.00;;;;;;4992827;28;20287;-78
2023/08/10 10:22:06;;;;;;;5.22;2.13;;;22.00;99.90;;;;;;4992791;28;20263;-78
2023/08/10 10:24:33;;;;;;;7.68;2.97;;;22.00;25.10;;;;;;4996611;28;20269;-78
2023/08/10 10:27:01;;;;;;;3.75;2.05;;;22.00;15.60;;;;;;4996800;28;20184;-78
2023/08/10 10:29:40;;;;;;;5.78;2.00;;;22.10;55.10;;;;;;4996757;28;20181;-78
2023/08/10 10:32:15;;;;;;;3.13;1.85;;;22.20;1.00;;;;;;5013678;28;20191;-78
2023/08/10 10:34:42;;;;;;;4.70;2.10;;;22.10;1.00;;;;;;4996930;28;20184;-78
2023/08/10 10:37:29;;;;;;;3.67;2.25;;;22.10;1.00;;;;;;4998110;28;20625;-77
2023/08/10 10:40:14;;;;;;;3.90;2.17;;;22.30;1.00;;;;;;4998055;28;20683;-78
2023/08/10 10:43:02;;;;;;;5.53;2.10;;;22.30;99.90;;;;;;4996665;28;20184;-78
2023/08/10 10:45:29;;;;;;;5.03;2.33;;;22.40;1.00;;;;;;5012874;28;20667;-78
2023/08/10 10:47:58;;;;;;;8.43;2.38;;;22.40;1.00;;;;;;4998024;28;20201;-78
2023/08/10 10:50:27;;;;;;;3.50;2.28;;;22.50;99.90;;;;;;4996505;28;20335;-78
2023/08/10 10:53:04;;;;;;;4.95;2.00;;;22.50;99.90;;;;;;4996829;28;20541;-78
2023/08/10 10:55:36;;;;;;;4.90;2.40;;;22.60;78.40;;;;;;4996687;28;20553;-78
2023/08/10 10:58:03;;;;;;;4.05;2.30;;;22.50;10.70;;;;;;5012988;28;20193;-78
2023/08/10 11:00:29;;;;;;;3.92;2.20;;;22.40;1.00;;;;;;4998026;28;20190;-77
2023/08/10 11:02:55;;;;;;;4.10;2.30;;;22.30;1.00;;;;;;5000433;28;20278;-78
2023/08/10 11:05:22;;;;;;;5.10;2.17;;;22.10;1.00;;;;;;4997649;28;20180;-78
2023/08/10 11:07:49;;;;;;;4.13;2.30;;;22.20;1.00;;;;;;4996702;28;20287;-78
2023/08/10 11:10:17;;;;;;;4.47;2.22;;;22.20;1.00;;;;;;4996870;28;20784;-78
2023/08/10 11:12:44;;;;;;;3.67;2.10;;;22.30;99.90;;;;;;4996282;28;20184;-78
2023/08/10 11:15:12;;;;;;;6.97;2.47;;;22.40;99.90;;;;;;5012496;28;20539;-77
2023/08/10 11:17:41;;;;;;;6.22;2.38;;;22.70;67.60;;;;;;4996180;28;20215;-78
2023/08/10 11:20:12;;;;;;;7.18;2.50;;;22.80;99.90;;;;;;4996751;28;20200;-78
2023/08/10 11:22:42;;;;;;;5.13;2.10;;;22.90;99.90;;;;;;4999166;28;20176;-78
2023/08/10 11:25:13;;;;;;;2.15;1.90;;;22.90;99.90;;;;;;5013446;28;20184;-78
2023/08/10 11:27:49;;;;;;;3.78;2.20;;;22.90;99.90;;;;;;4997087;28;20204;-79
2023/08/10 11:30:17;;;;;;;4.80;2.03;;;23.10;1.00;;;;;;4998458;28;20192;-78
2023/08/10 11:32:52;;;;;;;2.70;1.98;;;23.40;99.90;;;;;;4997270;28;20219;-79
2023/08/10 11:35:24;;;;;;;4.00;2.20;;;23.70;1.00;;;;;;4996299;28;20273;-78
2023/08/10 11:37:51;;;;;;;3.28;2.20;;;23.90;1.10;;;;;;4996881;28;20196;-79
2023/08/10 11:40:21;;;;;;;7.18;2.40;;;24.10;99.90;;;;;;5012927;28;20184;-78
2023/08/10 11:42:49;;;;;;;4.60;2.03;;;24.10;99.90;;;;;;4998045;28;20303;-78
2023/08/10 11:45:23;;;;;;;11.00;3.15;;;23.90;99.90;;;;;;4997956;28;20688;-78
2023/08/10 11:47:52;;;;;;;4.80;2.30;;;24.00;14.60;;;;;;4996423;28;20211;-78
2023/08/10 11:50:20;;;;;;;5.03;2.55;;;24.00;99.90;;;;;;4997544;28;20623;-78
2023/08/10 11:52:47;;;;;;;5.07;2.60;;;24.20;1.00;;;;;;4997421;28;20260;-79
2023/08/10 11:55:15;;;;;;;5.13;2.28;;;24.00;99.90;;;;;;4996132;28;20180;-79
2023/08/10 11:57:45;;;;;;;8.63;2.72;;;23.80;99.90;;;;;;4997075;28;20200;-78
2023/08/10 12:00:22;;;;;;;6.28;2.53;;;23.90;99.90;;;;;;4995634;28;20279;-77
2023/08/10 12:03:18;;;;;;;3.92;2.80;;;23.80;1.00;;;;;;4995694;28;20606;-77
2023/08/10 12:05:52;;;;;;;8.55;2.70;;;23.60;1.00;;;;;;4995315;28;20270;-78
2023/08/10 12:08:30;;;;;;;6.72;2.97;;;23.50;12.80;;;;;;4995039;28;20748;-77
2023/08/10 12:11:03;;;;;;;7.55;3.40;;;23.50;99.90;;;;;;4996141;28;20192;-78
2023/08/10 12:13:30;;;;;;;5.38;2.78;;;23.30;99.90;;;;;;4994869;28;20172;-78
2023/08/10 12:15:58;;;;;;;7.50;3.35;;;23.60;1.00;;;;;;4994832;28;20239;-77
2023/08/10 12:18:24;;;;;;;7.40;2.90;;;23.60;1.00;;;;;;4996024;28;20189;-78
2023/08/10 12:20:54;;;;;;;5.05;2.75;;;24.00;1.00;;;;;;4995364;28;20183;-78
2023/08/10 12:23:21;;;;;;;4.55;3.20;;;24.10;1.00;;;;;;5012714;28;20180;-78
2023/08/10 12:25:48;;;;;;;3.30;2.30;;;23.90;1.00;;;;;;4994901;28;20231;-78
2023/08/10 12:28:15;;;;;;;6.53;3.25;;;23.90;1.00;;;;;;4994406;28;20292;-78
2023/08/10 12:30:42;;;;;;;7.88;3.10;;;24.10;1.00;;;;;;4994370;28;20702;-79
2023/08/10 12:33:09;;;;;;;6.68;3.55;;;24.40;73.70;;;;;;4994694;28;20196;-78
2023/08/10 12:35:35;;;;;;;5.10;2.70;;;24.70;1.00;;;;;;4995011;28;20227;-78
2023/08/10 12:38:03;;;;;;;3.33;2.40;;;24.60;1.00;;;;;;4994972;28;20200;-78
2023/08/10 12:40:29;;;;;;;3.45;2.60;;;24.80;99.90;;;;;;4994851;28;20218;-78
2023/08/10 12:42:55;;;;;;;5.15;2.75;;;24.90;99.90;;;;;;4994844;28;20645;-79
2023/08/10 12:45:22;;;;;;;4.68;2.13;;;24.50;99.90;;;;;;4994610;28;20184;-77
2023/08/10 12:47:48;;;;;;;5.13;2.30;;;24.40;1.00;;;;;;4993953;28;20250;-78